createdAt,value
2017-10-03T00:01:10.050Z,82.30
2017-10-03T00:03:40.890Z,82.40
2017-10-03T00:06:10.774Z,82.20
2017-10-03T00:08:40.668Z,82.60
2017-10-03T00:11:11.908Z,83.20
2017-10-03T00:13:43.551Z,83.20
2017-10-03T00:16:15.721Z,83.20
2017-10-03T00:18:47.103Z,83.60
2017-10-03T00:21:16.754Z,83.60
2017-10-03T00:23:46.627Z,83.80
2017-10-03T00:26:16.506Z,83.50
2017-10-03T00:28:47.567Z,83.20
2017-10-03T00:31:18.186Z,82.90
2017-10-03T00:33:48.431Z,82.60
2017-10-03T00:36:18.321Z,82.60
2017-10-03T00:38:47.892Z,83.10
2017-10-03T00:41:17.774Z,83.00
2017-10-03T00:43:49.024Z,83.20
2017-10-03T00:46:19.705Z,83.90
2017-10-03T00:48:49.523Z,83.50
2017-10-03T00:51:19.403Z,83.40
2017-10-03T00:53:50.609Z,83.20
2017-10-03T00:56:21.928Z,83.00
2017-10-03T00:58:51.945Z,83.70
2017-10-03T01:01:21.846Z,84.40
2017-10-03T01:03:51.732Z,84.50
2017-10-03T01:06:21.313Z,84.70
2017-10-03T01:08:51.530Z,84.90
2017-10-03T01:11:21.363Z,85.00
2017-10-03T01:13:50.097Z,85.00
2017-10-03T01:16:20.747Z,85.50
2017-10-03T01:18:52.515Z,86.00
2017-10-03T01:21:31.003Z,86.70
2017-10-03T01:24:00.948Z,86.20
2017-10-03T01:26:30.810Z,85.80
2017-10-03T01:29:02.247Z,85.70
2017-10-03T01:31:33.127Z,85.60
2017-10-03T01:34:02.756Z,85.70
2017-10-03T01:36:32.571Z,85.50
2017-10-03T01:39:03.673Z,85.60
2017-10-03T01:41:33.726Z,86.00
2017-10-03T01:44:04.167Z,85.70
2017-10-03T01:46:35.410Z,86.60
2017-10-03T01:49:06.038Z,87.10
2017-10-03T01:51:36.870Z,86.50
2017-10-03T01:54:06.551Z,86.80
2017-10-03T01:56:37.373Z,87.20
2017-10-03T01:59:07.122Z,87.20
2017-10-03T02:01:38.966Z,86.90
2017-10-03T02:04:08.793Z,87.00
2017-10-03T02:06:38.910Z,86.90
2017-10-03T02:09:09.475Z,86.50
2017-10-03T02:11:40.084Z,85.90
2017-10-03T02:14:10.764Z,85.90
2017-10-03T02:16:40.709Z,86.70
2017-10-03T02:19:11.465Z,86.70
2017-10-03T02:21:41.178Z,86.50
2017-10-03T02:24:11.816Z,86.90
2017-10-03T02:26:42.488Z,86.90
2017-10-03T02:29:12.674Z,86.90
2017-10-03T02:31:42.603Z,87.10
2017-10-03T02:34:13.996Z,86.30
2017-10-03T02:36:44.628Z,86.30
2017-10-03T02:39:14.241Z,86.50
2017-10-03T02:41:44.117Z,87.00
2017-10-03T02:44:13.836Z,86.60
2017-10-03T02:46:49.870Z,86.60
2017-10-03T02:49:20.338Z,87.70
2017-10-03T02:51:50.985Z,87.70
2017-10-03T02:54:22.300Z,87.50
2017-10-03T02:56:52.175Z,87.10
2017-10-03T02:59:21.847Z,87.30
2017-10-03T03:01:51.437Z,88.20
2017-10-03T03:04:21.293Z,89.00
2017-10-03T03:06:52.067Z,89.20
2017-10-03T03:09:22.045Z,88.80
2017-10-03T03:11:52.481Z,89.20
2017-10-03T03:14:22.304Z,89.10
2017-10-03T03:16:51.990Z,87.60
2017-10-03T03:19:19.543Z,86.20
2017-10-03T03:21:47.134Z,85.80
2017-10-03T03:24:14.700Z,85.00
2017-10-03T03:26:42.295Z,85.40
2017-10-03T03:29:09.855Z,84.50
2017-10-03T03:31:37.454Z,84.20
2017-10-03T03:34:05.031Z,84.30
2017-10-03T03:36:32.666Z,84.10
2017-10-03T03:39:02.306Z,84.50
2017-10-03T03:41:31.869Z,84.50
2017-10-03T03:43:59.482Z,84.90
2017-10-03T03:46:27.093Z,85.40
2017-10-03T03:48:54.664Z,84.80
2017-10-03T03:51:22.266Z,84.50
2017-10-03T03:53:49.862Z,84.80
2017-10-03T03:56:17.431Z,84.90
2017-10-03T03:58:45.032Z,83.70
2017-10-03T04:01:12.639Z,83.60
2017-10-03T04:03:40.209Z,83.40
2017-10-03T04:06:10.184Z,82.70
2017-10-03T04:08:37.796Z,82.80
2017-10-03T04:11:05.391Z,81.90
2017-10-03T04:13:32.998Z,81.60
2017-10-03T04:16:01.335Z,82.20
2017-10-03T04:18:28.962Z,82.10
2017-10-03T04:20:56.540Z,82.40
2017-10-03T04:23:24.108Z,80.70
2017-10-03T04:25:51.723Z,81.50
2017-10-03T04:28:19.290Z,80.30
2017-10-03T04:30:46.891Z,80.30
2017-10-03T04:33:14.499Z,79.70
2017-10-03T04:35:42.832Z,80.10
2017-10-03T04:38:10.402Z,80.10
2017-10-03T04:40:38.004Z,81.50
2017-10-03T04:43:05.569Z,79.50
2017-10-03T04:45:33.178Z,80.70
2017-10-03T04:48:00.752Z,78.70
2017-10-03T04:50:28.318Z,79.30
2017-10-03T04:52:55.925Z,79.20
2017-10-03T04:55:23.525Z,79.50
2017-10-03T04:57:51.135Z,80.60
2017-10-03T05:00:18.711Z,81.80
2017-10-03T05:02:46.321Z,82.40
2017-10-03T05:05:13.880Z,80.60
2017-10-03T05:07:41.446Z,80.50
2017-10-03T05:10:09.056Z,80.30
2017-10-03T05:12:36.620Z,79.70
2017-10-03T05:15:04.952Z,79.20
2017-10-03T05:17:33.323Z,80.40
2017-10-03T05:20:00.929Z,80.40
2017-10-03T05:22:28.534Z,79.10
2017-10-03T05:24:56.105Z,81.30
2017-10-03T05:27:23.674Z,80.20
2017-10-03T05:29:52.053Z,79.90
2017-10-03T05:32:19.667Z,80.00
2017-10-03T05:34:48.020Z,78.80
2017-10-03T05:37:15.596Z,78.90
2017-10-03T05:39:43.214Z,81.10
2017-10-03T05:42:11.551Z,83.00
2017-10-03T05:44:39.115Z,82.90
2017-10-03T05:47:06.712Z,81.60
2017-10-03T05:49:34.329Z,80.20
2017-10-03T05:52:01.895Z,80.90
2017-10-03T05:54:29.507Z,81.80
2017-10-03T05:56:57.830Z,79.20
2017-10-03T05:59:25.403Z,79.20
2017-10-03T06:01:53.099Z,80.40
2017-10-03T06:04:21.659Z,81.00
2017-10-03T06:06:49.229Z,80.90
2017-10-03T06:09:16.838Z,82.00
2017-10-03T06:11:44.447Z,80.20
2017-10-03T06:14:12.059Z,82.20
2017-10-03T06:16:39.627Z,82.70
2017-10-03T06:19:07.192Z,81.20
2017-10-03T06:21:34.815Z,81.30
2017-10-03T06:24:03.142Z,79.70
2017-10-03T06:26:30.707Z,79.70
2017-10-03T06:28:58.307Z,79.30
2017-10-03T06:31:25.870Z,79.50
2017-10-03T06:33:54.254Z,83.00
2017-10-03T06:36:22.583Z,82.20
2017-10-03T06:38:50.148Z,82.20
2017-10-03T06:41:17.751Z,80.80
2017-10-03T06:43:46.090Z,81.40
2017-10-03T06:46:13.723Z,81.40
2017-10-03T06:48:41.315Z,81.40
2017-10-03T06:51:08.906Z,81.40
2017-10-03T06:53:36.478Z,80.50
2017-10-03T06:56:04.847Z,81.10
2017-10-03T06:58:32.434Z,81.10
2017-10-03T07:01:00.846Z,81.70
2017-10-03T07:03:28.419Z,81.70
2017-10-03T07:05:55.979Z,81.10
2017-10-03T07:08:23.581Z,80.30
2017-10-03T07:10:51.915Z,80.20
2017-10-03T07:13:19.521Z,80.20
2017-10-03T07:15:47.899Z,80.60
2017-10-03T07:18:16.225Z,80.10
2017-10-03T07:20:43.791Z,80.10
2017-10-03T07:23:11.401Z,79.50
2017-10-03T07:25:39.727Z,80.50
2017-10-03T07:28:07.292Z,80.50
2017-10-03T07:30:34.908Z,80.90
2017-10-03T07:33:02.501Z,80.70
2017-10-03T07:35:30.067Z,80.90
2017-10-03T07:37:57.658Z,79.90
2017-10-03T07:40:25.278Z,79.50
2017-10-03T07:42:52.834Z,81.30
2017-10-03T07:45:20.403Z,79.40
2017-10-03T07:47:48.009Z,79.60
2017-10-03T07:50:15.566Z,79.10
2017-10-03T07:52:43.158Z,79.20
2017-10-03T07:55:11.494Z,79.10
2017-10-03T07:57:39.091Z,79.10
2017-10-03T08:00:07.435Z,79.80
2017-10-03T08:02:35.028Z,79.80
2017-10-03T08:05:03.411Z,80.40
2017-10-03T08:07:31.735Z,80.00
2017-10-03T08:09:59.291Z,79.80
2017-10-03T08:12:26.908Z,80.00
2017-10-03T08:14:55.231Z,78.70
2017-10-03T08:17:22.791Z,78.70
2017-10-03T08:19:50.407Z,79.20
2017-10-03T08:22:18.772Z,79.70
2017-10-03T08:24:46.378Z,79.60
2017-10-03T08:27:13.938Z,80.20
2017-10-03T08:29:41.499Z,80.70
2017-10-03T08:32:09.104Z,80.50
2017-10-03T08:34:36.712Z,79.90
2017-10-03T08:37:04.310Z,79.40
2017-10-03T08:39:31.914Z,79.60
2017-10-03T08:42:00.247Z,78.90
2017-10-03T08:44:27.843Z,78.90
2017-10-03T08:46:56.182Z,78.30
2017-10-03T08:49:23.788Z,78.30
2017-10-03T08:51:52.160Z,78.40
2017-10-03T08:54:19.728Z,78.40
2017-10-03T08:56:48.098Z,75.90
2017-10-03T08:59:15.663Z,75.80
2017-10-03T09:01:44.039Z,73.10
2017-10-03T09:04:12.382Z,73.40
2017-10-03T09:06:39.990Z,73.40
2017-10-03T09:09:08.319Z,74.40
2017-10-03T09:11:35.938Z,74.40
2017-10-03T09:14:03.502Z,74.40
2017-10-03T09:16:31.085Z,73.00
2017-10-03T09:18:58.683Z,74.10
2017-10-03T09:21:26.262Z,72.00
2017-10-03T09:23:54.630Z,73.30
2017-10-03T09:26:22.198Z,73.20
2017-10-03T09:28:50.566Z,73.00
2017-10-03T09:31:18.179Z,73.00
2017-10-03T09:33:45.791Z,74.40
2017-10-03T09:36:13.361Z,72.50
2017-10-03T09:38:40.976Z,73.00
2017-10-03T09:41:08.595Z,72.30
2017-10-03T09:43:36.923Z,72.00
2017-10-03T09:46:04.487Z,72.00
2017-10-03T09:48:32.127Z,72.30
2017-10-03T09:50:59.707Z,71.30
2017-10-03T09:53:27.281Z,71.00
2017-10-03T09:55:54.923Z,70.90
2017-10-03T09:58:22.490Z,68.50
2017-10-03T10:00:50.067Z,70.90
2017-10-03T10:03:17.672Z,69.80
2017-10-03T10:05:45.239Z,70.60
2017-10-03T10:08:12.815Z,70.70
2017-10-03T10:10:40.426Z,71.60
2017-10-03T10:13:07.999Z,67.90
2017-10-03T10:15:36.404Z,69.40
2017-10-03T10:18:03.983Z,69.30
2017-10-03T10:20:31.551Z,67.20
2017-10-03T10:22:59.155Z,67.70
2017-10-03T10:25:27.495Z,69.40
2017-10-03T10:27:55.099Z,68.70
2017-10-03T10:30:23.473Z,68.60
2017-10-03T10:32:51.035Z,68.50
2017-10-03T10:35:18.626Z,70.10
2017-10-03T10:37:46.222Z,68.90
2017-10-03T10:40:13.785Z,68.30
2017-10-03T10:42:41.402Z,68.40
2017-10-03T10:45:08.974Z,68.80
2017-10-03T10:47:36.560Z,67.30
2017-10-03T10:50:04.187Z,67.00
2017-10-03T10:52:31.760Z,66.50
2017-10-03T10:54:59.324Z,63.70
2017-10-03T10:57:26.934Z,58.60
2017-10-03T10:59:54.511Z,58.20
2017-10-03T11:02:22.107Z,59.40
2017-10-03T11:04:49.711Z,58.20
2017-10-03T11:07:17.331Z,60.10
2017-10-03T11:09:44.896Z,60.30
2017-10-03T11:12:12.495Z,60.50
2017-10-03T11:14:40.090Z,60.20
2017-10-03T11:17:07.664Z,62.50
2017-10-03T11:19:35.278Z,60.90
2017-10-03T11:22:02.846Z,60.20
2017-10-03T11:24:42.275Z,58.90
2017-10-03T11:27:09.837Z,57.60
2017-10-03T11:29:37.411Z,56.70
2017-10-03T11:32:05.014Z,56.30
2017-10-03T11:34:32.578Z,56.90
2017-10-03T11:37:00.188Z,58.50
2017-10-03T11:39:27.751Z,57.30
2017-10-03T11:41:56.132Z,58.90
2017-10-03T11:44:23.738Z,58.80
2017-10-03T11:46:51.316Z,58.00
2017-10-03T11:49:18.886Z,58.40
2017-10-03T11:51:46.518Z,58.70
2017-10-03T11:54:14.942Z,57.90
2017-10-03T11:56:42.515Z,60.20
2017-10-03T11:59:10.896Z,59.30
2017-10-03T12:01:38.454Z,59.20
2017-10-03T12:04:06.080Z,59.70
2017-10-03T12:06:33.691Z,60.40
2017-10-03T12:09:02.067Z,60.30
2017-10-03T12:11:29.643Z,60.30
2017-10-03T12:13:57.274Z,59.90
2017-10-03T12:16:24.886Z,59.00
2017-10-03T12:18:52.479Z,58.10
2017-10-03T12:21:20.039Z,57.00
2017-10-03T12:23:47.646Z,57.00
2017-10-03T12:26:16.003Z,56.40
2017-10-03T12:28:43.627Z,56.30
2017-10-03T12:31:11.193Z,56.30
2017-10-03T12:33:38.759Z,55.20
2017-10-03T12:36:06.367Z,56.80
2017-10-03T12:38:34.703Z,54.90
2017-10-03T12:41:02.314Z,54.90
2017-10-03T12:43:29.879Z,56.50
2017-10-03T12:45:57.439Z,56.40
2017-10-03T12:48:25.051Z,55.10
2017-10-03T12:50:52.627Z,55.40
2017-10-03T12:53:20.957Z,57.20
2017-10-03T12:55:48.554Z,56.70
2017-10-03T12:58:16.115Z,57.30
2017-10-03T13:00:43.724Z,56.90
2017-10-03T13:03:11.283Z,57.80
2017-10-03T13:05:38.910Z,56.70
2017-10-03T13:08:06.482Z,56.80
2017-10-03T13:10:34.860Z,56.30
2017-10-03T13:13:03.243Z,56.90
2017-10-03T13:15:31.629Z,57.80
2017-10-03T13:17:59.204Z,57.80
2017-10-03T13:20:26.785Z,57.60
2017-10-03T13:22:54.407Z,57.00
2017-10-03T13:25:22.748Z,56.20
2017-10-03T13:27:50.378Z,56.20
2017-10-03T13:30:17.968Z,56.60
2017-10-03T13:32:45.540Z,56.00
2017-10-03T13:35:13.141Z,56.00
2017-10-03T13:37:40.710Z,55.50
2017-10-03T13:40:08.325Z,56.80
2017-10-03T13:42:35.896Z,55.70
2017-10-03T13:45:03.467Z,56.20
2017-10-03T13:47:31.857Z,56.50
2017-10-03T13:49:59.426Z,56.50
2017-10-03T13:52:26.991Z,56.60
2017-10-03T13:54:54.634Z,56.00
2017-10-03T13:57:22.975Z,55.10
2017-10-03T13:59:50.557Z,55.10
2017-10-03T14:02:18.171Z,54.90
2017-10-03T14:04:45.775Z,55.10
2017-10-03T14:07:13.350Z,54.20
2017-10-03T14:09:41.739Z,52.20
2017-10-03T14:12:10.074Z,52.90
2017-10-03T14:14:37.639Z,52.90
2017-10-03T14:17:05.250Z,53.00
2017-10-03T14:19:32.820Z,54.30
2017-10-03T14:22:00.440Z,53.20
2017-10-03T14:24:28.017Z,53.30
2017-10-03T14:26:55.635Z,53.20
2017-10-03T14:29:23.234Z,54.70
2017-10-03T14:31:51.572Z,54.50
2017-10-03T14:34:19.158Z,54.50
2017-10-03T14:36:46.763Z,54.20
2017-10-03T14:39:14.323Z,54.40
2017-10-03T14:41:41.936Z,54.10
2017-10-03T14:44:09.576Z,53.60
2017-10-03T14:46:37.182Z,55.20
2017-10-03T14:49:05.527Z,55.70
2017-10-03T14:51:33.134Z,55.70
2017-10-03T14:54:00.703Z,57.10
2017-10-03T14:56:28.309Z,56.20
2017-10-03T14:58:55.922Z,56.40
2017-10-03T15:01:23.497Z,56.10
2017-10-03T15:03:51.062Z,56.10
2017-10-03T15:06:18.682Z,56.30
2017-10-03T15:08:47.042Z,56.70
2017-10-03T15:11:14.666Z,56.70
2017-10-03T15:13:42.242Z,56.20
2017-10-03T15:16:09.806Z,55.70
2017-10-03T15:18:37.434Z,55.20
2017-10-03T15:21:05.015Z,53.80
2017-10-03T15:23:32.585Z,52.90
2017-10-03T15:26:00.182Z,52.90
2017-10-03T15:28:28.528Z,53.00
2017-10-03T15:30:56.144Z,52.90
2017-10-03T15:33:24.478Z,52.90
2017-10-03T15:35:52.098Z,52.80
2017-10-03T15:38:19.666Z,54.10
2017-10-03T15:40:47.292Z,54.30
2017-10-03T15:43:15.658Z,55.20
2017-10-03T15:45:43.226Z,55.10
2017-10-03T15:48:11.609Z,55.00
2017-10-03T15:50:39.961Z,55.20
2017-10-03T15:53:07.576Z,55.20
2017-10-03T15:55:35.157Z,56.00
2017-10-03T15:58:02.722Z,55.90
2017-10-03T16:00:30.328Z,56.20
2017-10-03T16:02:58.706Z,56.80
2017-10-03T16:05:27.046Z,57.50
2017-10-03T16:07:54.695Z,57.50
2017-10-03T16:10:22.272Z,57.80
2017-10-03T16:12:49.846Z,57.90
2017-10-03T16:15:23.685Z,58.20
2017-10-03T16:17:54.070Z,57.20
2017-10-03T16:20:32.843Z,57.20
2017-10-03T16:23:03.700Z,58.20
2017-10-03T16:25:33.239Z,58.20
2017-10-03T16:28:02.652Z,58.10
2017-10-03T16:30:36.347Z,57.50
2017-10-03T16:33:05.185Z,58.10
2017-10-03T16:35:35.735Z,58.30
2017-10-03T16:38:04.878Z,58.20
2017-10-03T16:40:34.331Z,58.00
2017-10-03T16:43:03.537Z,57.70
2017-10-03T16:45:33.181Z,57.80
2017-10-03T16:48:02.397Z,57.80
2017-10-03T16:50:32.887Z,58.70
2017-10-03T16:53:02.728Z,59.60
2017-10-03T16:55:32.344Z,59.20
2017-10-03T16:58:02.970Z,59.00
2017-10-03T17:00:33.365Z,58.40
2017-10-03T17:03:03.215Z,58.50
2017-10-03T17:05:36.647Z,58.60
2017-10-03T17:08:07.164Z,58.00
2017-10-03T17:10:37.687Z,58.00
2017-10-03T17:13:07.580Z,57.90
2017-10-03T17:15:38.291Z,59.00
2017-10-03T17:18:07.512Z,58.50
2017-10-03T17:20:37.011Z,59.00
2017-10-03T17:23:06.456Z,59.30
2017-10-03T17:25:36.679Z,58.90
2017-10-03T17:28:07.047Z,58.30
2017-10-03T17:30:37.463Z,58.30
2017-10-03T17:33:07.152Z,58.00
2017-10-03T17:35:37.813Z,58.00
2017-10-03T17:38:08.043Z,58.00
2017-10-03T17:40:37.608Z,58.40
2017-10-03T17:43:07.717Z,59.10
2017-10-03T17:45:37.872Z,59.30
2017-10-03T17:48:07.619Z,59.30
2017-10-03T17:50:37.247Z,60.40
2017-10-03T17:53:07.077Z,60.80
2017-10-03T17:55:37.535Z,60.40
2017-10-03T17:58:08.129Z,60.30
2017-10-03T18:00:37.992Z,60.40
2017-10-03T18:03:07.837Z,61.20
2017-10-03T18:05:38.664Z,61.20
2017-10-03T18:08:08.547Z,61.20
2017-10-03T18:10:38.326Z,61.00
2017-10-03T18:13:09.972Z,62.60
2017-10-03T18:15:40.855Z,62.60
2017-10-03T18:18:11.271Z,62.10
2017-10-03T18:20:41.121Z,62.60
2017-10-03T18:23:10.851Z,63.00
2017-10-03T18:25:41.427Z,62.80
2017-10-03T18:28:11.328Z,63.60
2017-10-03T18:30:41.816Z,63.20
2017-10-03T18:33:12.508Z,63.20
2017-10-03T18:35:42.073Z,63.60
2017-10-03T18:38:11.904Z,65.00
2017-10-03T18:40:42.677Z,65.80
2017-10-03T18:43:12.940Z,65.80
2017-10-03T18:45:42.525Z,65.70
2017-10-03T18:48:12.382Z,65.60
2017-10-03T18:50:44.143Z,65.10
2017-10-03T18:53:14.792Z,64.20
2017-10-03T18:55:45.302Z,65.10
2017-10-03T18:58:15.655Z,65.00
2017-10-03T19:00:45.500Z,65.20
2017-10-03T19:03:15.201Z,64.90
2017-10-03T19:05:45.002Z,64.90
2017-10-03T19:08:15.556Z,64.50
2017-10-03T19:10:45.319Z,64.50
2017-10-03T19:13:15.952Z,65.50
2017-10-03T19:15:46.567Z,64.70
2017-10-03T19:18:16.412Z,64.70
2017-10-03T19:20:46.183Z,64.20
2017-10-03T19:23:16.122Z,63.80
2017-10-03T19:25:46.657Z,64.30
2017-10-03T19:28:17.266Z,63.90
2017-10-03T19:30:48.860Z,64.50
2017-10-03T19:33:18.744Z,64.40
2017-10-03T19:35:49.387Z,66.10
2017-10-03T19:38:19.805Z,64.90
2017-10-03T19:40:51.481Z,66.40
2017-10-03T19:43:21.878Z,65.20
2017-10-03T19:45:51.737Z,65.10
2017-10-03T19:48:21.533Z,65.90
2017-10-03T19:50:51.168Z,65.40
2017-10-03T19:53:20.873Z,65.40
2017-10-03T19:55:51.481Z,65.60
2017-10-03T19:58:21.275Z,65.00
2017-10-03T20:00:52.689Z,64.40
2017-10-03T20:03:22.530Z,64.50
2017-10-03T20:05:52.333Z,64.50
2017-10-03T20:08:22.749Z,65.10
2017-10-03T20:10:53.537Z,65.40
2017-10-03T20:13:23.910Z,65.40
2017-10-03T20:15:59.586Z,65.40
2017-10-03T20:18:29.478Z,66.20
2017-10-03T20:20:59.332Z,66.50
2017-10-03T20:23:30.676Z,66.00
2017-10-03T20:26:01.312Z,66.10
2017-10-03T20:28:32.727Z,66.40
2017-10-03T20:31:03.307Z,66.40
2017-10-03T20:33:33.174Z,66.50
2017-10-03T20:36:02.989Z,67.00
2017-10-03T20:38:32.987Z,66.90
2017-10-03T20:41:02.794Z,67.60
2017-10-03T20:43:32.473Z,67.20
2017-10-03T20:46:03.104Z,67.70
2017-10-03T20:48:32.983Z,67.60
2017-10-03T20:51:02.645Z,68.30
2017-10-03T20:53:33.512Z,68.40
2017-10-03T20:56:03.111Z,68.30
2017-10-03T20:58:33.996Z,68.00
2017-10-03T21:01:05.534Z,67.50
2017-10-03T21:03:35.340Z,67.50
2017-10-03T21:06:06.029Z,66.70
2017-10-03T21:08:35.614Z,67.40
2017-10-03T21:11:09.882Z,66.30
2017-10-03T21:13:40.455Z,66.20
2017-10-03T21:16:11.058Z,66.40
2017-10-03T21:18:40.821Z,66.40
2017-10-03T21:21:10.637Z,66.00
2017-10-03T21:23:40.254Z,65.70
2017-10-03T21:26:10.161Z,65.60
2017-10-03T21:28:39.895Z,65.60
2017-10-03T21:31:09.486Z,65.60
2017-10-03T21:33:40.421Z,65.80
2017-10-03T21:36:10.107Z,66.10
2017-10-03T21:38:39.473Z,66.00
2017-10-03T21:41:14.244Z,66.00
2017-10-03T21:43:45.030Z,65.40
2017-10-03T21:46:15.492Z,65.40
2017-10-03T21:48:47.828Z,65.40
2017-10-03T21:51:17.878Z,65.30
2017-10-03T21:53:47.452Z,66.60
2017-10-03T21:56:18.010Z,67.70
2017-10-03T21:58:52.423Z,68.20
2017-10-03T22:01:22.979Z,67.60
2017-10-03T22:03:53.678Z,67.50
2017-10-03T22:06:25.390Z,67.40
2017-10-03T22:08:55.196Z,67.90
2017-10-03T22:11:25.361Z,67.70
2017-10-03T22:13:55.051Z,67.70
2017-10-03T22:16:25.563Z,68.20
2017-10-03T22:18:56.360Z,67.90
2017-10-03T22:21:25.930Z,67.00
2017-10-03T22:23:55.549Z,66.80
2017-10-03T22:26:26.184Z,67.20
2017-10-03T22:28:56.012Z,68.40
2017-10-03T22:31:26.543Z,68.70
2017-10-03T22:33:57.729Z,68.30
2017-10-03T22:36:29.192Z,69.00
2017-10-03T22:38:57.304Z,69.00
2017-10-03T22:41:27.144Z,68.30
2017-10-03T22:43:56.780Z,70.10
2017-10-03T22:46:27.085Z,69.30
2017-10-03T22:49:00.338Z,68.70
2017-10-03T22:51:35.403Z,68.70
2017-10-03T22:54:05.133Z,67.90
2017-10-03T22:56:35.616Z,68.90
2017-10-03T22:59:05.142Z,68.90
2017-10-03T23:01:34.844Z,68.70
2017-10-03T23:04:04.295Z,68.90
2017-10-03T23:06:33.510Z,68.30
2017-10-03T23:09:03.327Z,68.50
2017-10-03T23:11:35.437Z,68.20
2017-10-03T23:14:06.046Z,68.10
2017-10-03T23:16:35.526Z,68.80
2017-10-03T23:19:05.095Z,68.00
2017-10-03T23:21:35.787Z,69.90
2017-10-03T23:24:06.795Z,69.80
2017-10-03T23:26:36.606Z,69.80
2017-10-03T23:29:07.344Z,70.00
2017-10-03T23:31:36.949Z,69.30
2017-10-03T23:34:05.350Z,68.60
2017-10-03T23:36:35.173Z,68.20
2017-10-03T23:39:05.027Z,68.70
2017-10-03T23:41:36.511Z,68.00
2017-10-03T23:44:06.037Z,69.00
2017-10-03T23:46:36.672Z,68.70
2017-10-03T23:49:06.298Z,68.30
2017-10-03T23:51:36.651Z,67.90
2017-10-03T23:54:06.390Z,67.50
2017-10-03T23:56:36.028Z,67.60
2017-10-03T23:59:05.845Z,67.50
